createdAt,value
2019-02-16T00:00:06.958Z,3.60
2019-02-16T00:02:48.086Z,3.60
2019-02-16T00:05:28.244Z,3.60
2019-02-16T00:08:07.617Z,3.50
2019-02-16T00:10:48.041Z,3.40
2019-02-16T00:13:27.929Z,3.20
2019-02-16T00:16:07.972Z,3.20
2019-02-16T00:18:48.195Z,3.10
2019-02-16T00:21:27.711Z,2.90
2019-02-16T00:24:07.710Z,2.80
2019-02-16T00:26:47.702Z,2.70
2019-02-16T00:29:31.370Z,2.60
2019-02-16T00:32:10.929Z,2.50
2019-02-16T00:34:50.135Z,2.50
2019-02-16T00:37:29.411Z,2.50
2019-02-16T00:40:09.275Z,2.50
2019-02-16T00:42:49.335Z,2.50
2019-02-16T00:45:28.600Z,2.50
2019-02-16T00:48:08.081Z,2.50
2019-02-16T00:50:47.258Z,2.40
2019-02-16T00:53:29.208Z,2.30
2019-02-16T00:56:09.737Z,2.30
2019-02-16T00:58:49.130Z,2.40
2019-02-16T01:01:28.434Z,2.40
2019-02-16T01:04:08.523Z,2.50
2019-02-16T01:06:48.341Z,2.40
2019-02-16T01:09:27.552Z,2.40
2019-02-16T01:12:06.866Z,2.40
2019-02-16T01:14:46.115Z,2.50
2019-02-16T01:17:25.487Z,2.60
2019-02-16T01:20:05.520Z,2.70
2019-02-16T01:22:44.595Z,2.70
2019-02-16T01:25:24.186Z,2.60
2019-02-16T01:28:08.504Z,2.50
2019-02-16T01:30:48.138Z,2.50
2019-02-16T01:33:27.437Z,2.50
2019-02-16T01:36:06.978Z,2.60
2019-02-16T01:38:46.080Z,2.50
2019-02-16T01:41:25.830Z,2.40
2019-02-16T01:44:06.368Z,2.40
2019-02-16T01:46:45.944Z,2.40
2019-02-16T01:49:25.062Z,2.40
2019-02-16T01:52:04.843Z,2.30
2019-02-16T01:54:44.574Z,2.40
2019-02-16T01:57:24.582Z,2.40
2019-02-16T02:00:03.832Z,2.40
2019-02-16T02:02:43.385Z,2.40
2019-02-16T02:05:22.601Z,2.40
2019-02-16T02:08:01.870Z,2.30
2019-02-16T02:10:42.105Z,2.30
2019-02-16T02:13:21.995Z,2.20
2019-02-16T02:16:01.200Z,2.30
2019-02-16T02:18:40.578Z,2.30
2019-02-16T02:21:21.408Z,2.30
2019-02-16T02:24:00.616Z,2.20
2019-02-16T02:26:39.992Z,2.10
2019-02-16T02:29:19.186Z,2.00
2019-02-16T02:31:58.298Z,1.90
2019-02-16T02:34:37.802Z,1.90
2019-02-16T02:37:17.008Z,1.90
2019-02-16T02:39:56.445Z,1.80
2019-02-16T02:42:35.779Z,1.70
2019-02-16T02:45:15.451Z,1.60
2019-02-16T02:47:55.153Z,1.50
2019-02-16T02:50:37.061Z,1.50
2019-02-16T02:53:16.204Z,1.50
2019-02-16T02:55:55.507Z,1.50
2019-02-16T02:58:34.702Z,1.60
2019-02-16T03:01:14.142Z,1.60
2019-02-16T03:03:53.501Z,1.70
2019-02-16T03:06:33.013Z,1.70
2019-02-16T03:09:12.302Z,2.00
2019-02-16T03:11:51.602Z,2.20
2019-02-16T03:14:33.077Z,2.40
2019-02-16T03:17:13.406Z,2.50
2019-02-16T03:19:52.672Z,2.50
2019-02-16T03:23:13.399Z,2.40
2019-02-16T03:26:45.468Z,2.30
2019-02-16T03:30:05.828Z,2.10
2019-02-16T03:33:49.026Z,2.10
2019-02-16T03:37:21.567Z,2.10
2019-02-16T03:40:00.829Z,2.00
2019-02-16T03:42:40.139Z,1.90
2019-02-16T03:45:19.451Z,1.90
2019-02-16T03:48:00.179Z,2.10
2019-02-16T03:50:39.264Z,2.10
2019-02-16T03:53:18.688Z,2.10
2019-02-16T03:55:57.867Z,2.10
2019-02-16T03:58:37.221Z,2.00
2019-02-16T04:01:16.396Z,2.00
2019-02-16T04:03:57.246Z,2.10
2019-02-16T04:06:36.377Z,2.30
2019-02-16T04:09:15.917Z,2.30
2019-02-16T04:11:55.439Z,2.20
2019-02-16T04:14:34.802Z,2.10
2019-02-16T04:17:14.109Z,2.10
2019-02-16T04:19:53.604Z,2.00
2019-02-16T04:22:32.900Z,1.80
2019-02-16T04:25:31.374Z,1.80
2019-02-16T04:28:13.109Z,1.70
2019-02-16T04:30:54.581Z,1.50
2019-02-16T04:33:33.812Z,1.40
2019-02-16T04:36:12.971Z,1.40
2019-02-16T04:38:52.322Z,1.30
2019-02-16T04:41:33.504Z,1.30
2019-02-16T04:44:12.698Z,1.40
2019-02-16T04:46:51.836Z,1.40
2019-02-16T04:49:30.930Z,1.50
2019-02-16T04:52:10.116Z,1.60
2019-02-16T04:54:49.219Z,1.70
2019-02-16T04:57:28.311Z,1.90
2019-02-16T05:00:08.727Z,2.00
2019-02-16T05:02:52.955Z,2.20
2019-02-16T05:05:32.089Z,2.30
2019-02-16T05:08:11.140Z,2.30
2019-02-16T05:10:50.645Z,2.40
2019-02-16T05:13:29.989Z,2.40
2019-02-16T05:16:09.253Z,2.50
2019-02-16T05:18:48.422Z,2.40
2019-02-16T05:21:27.843Z,2.40
2019-02-16T05:24:07.014Z,2.30
2019-02-16T05:26:46.964Z,2.30
2019-02-16T05:29:26.110Z,2.30
2019-02-16T05:32:11.718Z,2.30
2019-02-16T05:34:50.951Z,2.30
2019-02-16T05:37:30.584Z,2.40
2019-02-16T05:40:10.272Z,2.40
2019-02-16T05:42:51.747Z,2.30
2019-02-16T05:45:30.928Z,2.30
2019-02-16T05:48:10.128Z,2.30
2019-02-16T05:50:49.531Z,2.30
2019-02-16T05:53:30.333Z,2.20
2019-02-16T05:56:09.622Z,2.10
2019-02-16T05:58:48.925Z,2.00
2019-02-16T06:01:28.369Z,2.00
2019-02-16T06:04:07.511Z,1.90
2019-02-16T06:06:46.737Z,1.90
2019-02-16T06:09:26.011Z,1.70
2019-02-16T06:12:05.224Z,1.70
2019-02-16T06:14:44.515Z,1.60
2019-02-16T06:17:23.877Z,1.70
2019-02-16T06:20:03.034Z,1.80
2019-02-16T06:22:42.238Z,2.00
2019-02-16T06:25:21.477Z,2.20
2019-02-16T06:28:01.278Z,2.20
2019-02-16T06:30:40.507Z,2.20
2019-02-16T06:33:19.682Z,2.30
2019-02-16T06:36:03.865Z,2.40
2019-02-16T06:38:43.701Z,2.40
2019-02-16T06:41:22.860Z,2.50
2019-02-16T06:44:01.977Z,2.60
2019-02-16T06:46:41.222Z,2.60
2019-02-16T06:49:20.428Z,2.60
2019-02-16T06:52:00.141Z,2.60
2019-02-16T06:54:40.931Z,2.70
2019-02-16T06:57:24.087Z,2.80
2019-02-16T07:00:03.676Z,2.90
2019-02-16T07:02:43.208Z,2.90
2019-02-16T07:05:22.395Z,2.80
2019-02-16T07:08:01.571Z,2.70
2019-02-16T07:10:40.700Z,2.70
2019-02-16T07:13:23.648Z,2.60
2019-02-16T07:16:25.516Z,2.60
2019-02-16T07:19:11.061Z,2.60
2019-02-16T07:21:50.391Z,2.80
2019-02-16T07:24:29.857Z,3.00
2019-02-16T07:27:09.695Z,3.00
2019-02-16T07:30:12.782Z,3.00
2019-02-16T07:32:29.751Z,3.20
2019-02-16T07:35:09.434Z,3.30
2019-02-16T07:37:50.342Z,3.30
2019-02-16T07:40:29.662Z,3.40
2019-02-16T07:43:16.458Z,3.50
2019-02-16T07:46:02.453Z,3.50
2019-02-16T07:48:51.499Z,3.60
2019-02-16T07:51:50.220Z,3.70
2019-02-16T07:54:35.177Z,3.80
2019-02-16T07:57:47.442Z,3.90
2019-02-16T08:00:36.444Z,4.10
2019-02-16T08:03:24.486Z,4.20
2019-02-16T08:06:20.056Z,4.30
2019-02-16T08:09:17.261Z,4.40
2019-02-16T08:12:04.788Z,4.50
2019-02-16T08:15:04.496Z,4.70
2019-02-16T08:17:58.450Z,4.90
2019-02-16T08:21:06.146Z,5.00
2019-02-16T08:24:07.606Z,5.20
2019-02-16T08:27:00.587Z,6.20
2019-02-16T08:30:08.570Z,9.10
2019-02-16T08:33:19.446Z,12.60
2019-02-16T08:36:07.394Z,14.50
2019-02-16T08:39:00.253Z,15.80
2019-02-16T08:42:07.744Z,16.20
2019-02-16T08:45:06.520Z,16.90
2019-02-16T08:48:08.327Z,16.50
2019-02-16T08:51:21.815Z,17.90
2019-02-16T08:54:15.929Z,18.40
2019-02-16T08:57:17.382Z,19.40
2019-02-16T09:00:13.815Z,20.10
2019-02-16T09:02:59.389Z,21.20
2019-02-16T09:06:01.500Z,21.00
2019-02-16T09:09:00.495Z,21.00
2019-02-16T09:11:57.997Z,21.40
2019-02-16T09:15:02.419Z,20.90
2019-02-16T09:18:13.284Z,20.80
2019-02-16T09:21:14.835Z,20.40
2019-02-16T09:24:10.771Z,19.70
2019-02-16T09:27:02.246Z,19.80
2019-02-16T09:29:59.912Z,20.00
2019-02-16T09:32:53.864Z,21.30
2019-02-16T09:35:42.313Z,21.40
2019-02-16T09:38:31.235Z,21.50
2019-02-16T09:41:32.554Z,21.90
2019-02-16T09:44:31.175Z,22.20
2019-02-16T09:47:28.271Z,22.70
2019-02-16T09:50:23.151Z,23.00
2019-02-16T09:53:20.224Z,23.80
2019-02-16T09:56:16.011Z,24.30
2019-02-16T09:59:06.350Z,23.20
2019-02-16T10:02:03.912Z,23.40
2019-02-16T10:05:17.778Z,23.30
2019-02-16T10:08:11.825Z,23.60
2019-02-16T10:11:11.855Z,24.30
2019-02-16T10:14:01.646Z,25.30
2019-02-16T10:17:03.464Z,25.40
2019-02-16T10:20:04.759Z,25.70
2019-02-16T10:23:03.233Z,25.80
2019-02-16T10:26:03.500Z,25.00
2019-02-16T10:29:00.727Z,24.90
2019-02-16T10:31:49.557Z,24.70
2019-02-16T10:34:36.150Z,25.00
2019-02-16T10:37:38.846Z,25.30
2019-02-16T10:40:30.881Z,25.10
2019-02-16T10:43:32.347Z,25.10
2019-02-16T10:46:49.081Z,25.50
2019-02-16T10:49:53.861Z,25.90
2019-02-16T10:52:46.479Z,27.20
2019-02-16T10:55:45.985Z,26.80
2019-02-16T10:58:43.375Z,27.00
2019-02-16T11:01:40.800Z,27.20
2019-02-16T11:04:51.732Z,27.80
2019-02-16T11:07:40.883Z,27.90
2019-02-16T11:10:31.973Z,27.60
2019-02-16T11:13:20.978Z,27.60
2019-02-16T11:16:18.371Z,27.60
2019-02-16T11:19:07.891Z,27.70
2019-02-16T11:22:20.128Z,28.60
2019-02-16T11:25:33.712Z,29.10
2019-02-16T11:28:38.257Z,29.10
2019-02-16T11:31:28.146Z,28.40
2019-02-16T11:34:34.193Z,28.40
2019-02-16T11:37:39.013Z,29.30
2019-02-16T11:40:24.983Z,29.50
2019-02-16T11:43:35.823Z,30.10
2019-02-16T11:46:33.193Z,29.70
2019-02-16T11:49:20.089Z,30.30
2019-02-16T11:52:23.894Z,29.90
2019-02-16T11:55:21.250Z,30.10
2019-02-16T11:58:18.608Z,29.70
2019-02-16T12:01:14.898Z,29.70
2019-02-16T12:04:00.325Z,30.20
2019-02-16T12:06:53.146Z,30.30
2019-02-16T12:09:39.632Z,29.80
2019-02-16T12:12:29.456Z,29.40
2019-02-16T12:15:25.451Z,29.80
2019-02-16T12:18:34.679Z,30.20
2019-02-16T12:21:33.027Z,30.70
2019-02-16T12:24:27.193Z,30.60
2019-02-16T12:27:14.854Z,29.90
2019-02-16T12:30:04.304Z,29.40
2019-02-16T12:32:53.847Z,29.90
2019-02-16T12:35:55.397Z,29.80
2019-02-16T12:38:47.360Z,30.00
2019-02-16T12:41:48.841Z,29.90
2019-02-16T12:44:39.337Z,29.70
2019-02-16T12:47:29.756Z,29.60
2019-02-16T12:50:31.904Z,29.20
2019-02-16T12:53:36.442Z,28.30
2019-02-16T12:56:39.619Z,28.70
2019-02-16T12:59:30.439Z,28.50
2019-02-16T13:02:28.368Z,28.70
2019-02-16T13:05:19.196Z,28.70
2019-02-16T13:08:07.865Z,29.10
2019-02-16T13:10:54.727Z,28.30
2019-02-16T13:13:58.805Z,28.60
2019-02-16T13:17:15.430Z,28.80
2019-02-16T13:20:13.915Z,29.10
2019-02-16T13:23:15.581Z,28.60
2019-02-16T13:26:03.818Z,28.50
2019-02-16T13:29:02.321Z,28.30
2019-02-16T13:31:54.494Z,28.60
2019-02-16T13:34:52.928Z,29.50
2019-02-16T13:37:49.459Z,29.90
2019-02-16T13:40:36.061Z,29.80
2019-02-16T13:43:43.895Z,28.90
2019-02-16T13:46:57.362Z,28.80
2019-02-16T13:49:58.738Z,28.30
2019-02-16T13:52:54.467Z,28.80
2019-02-16T13:55:48.426Z,28.90
2019-02-16T13:58:45.614Z,28.20
2019-02-16T14:01:34.434Z,28.10
2019-02-16T14:04:36.627Z,28.00
2019-02-16T14:07:51.427Z,27.80
2019-02-16T14:10:51.192Z,26.90
2019-02-16T14:14:02.362Z,26.70
2019-02-16T14:17:00.960Z,27.20
2019-02-16T14:19:40.396Z,26.80
2019-02-16T14:22:19.936Z,26.20
2019-02-16T14:25:01.559Z,26.60
2019-02-16T14:27:42.013Z,26.80
2019-02-16T14:30:21.679Z,27.00
2019-02-16T14:33:01.335Z,26.80
2019-02-16T14:35:41.153Z,26.30
2019-02-16T14:38:35.043Z,25.60
2019-02-16T14:41:14.567Z,24.70
2019-02-16T14:43:53.979Z,23.40
2019-02-16T14:46:33.522Z,22.40
2019-02-16T14:49:15.477Z,22.00
2019-02-16T14:51:54.959Z,21.90
2019-02-16T14:54:34.411Z,21.60
2019-02-16T14:57:17.312Z,21.40
2019-02-16T15:00:00.308Z,21.00
2019-02-16T15:02:40.163Z,20.60
2019-02-16T15:05:19.943Z,20.20
2019-02-16T15:07:59.504Z,20.00
2019-02-16T15:10:39.791Z,19.50
2019-02-16T15:13:19.293Z,19.20
2019-02-16T15:15:58.843Z,18.80
2019-02-16T15:18:38.334Z,18.70
2019-02-16T15:21:17.898Z,18.40
2019-02-16T15:24:01.340Z,18.10
2019-02-16T15:26:40.971Z,18.30
2019-02-16T15:29:22.158Z,18.50
2019-02-16T15:32:01.923Z,18.30
2019-02-16T15:34:41.398Z,17.60
2019-02-16T15:37:21.010Z,17.10
2019-02-16T15:40:00.422Z,16.40
2019-02-16T15:42:39.978Z,16.10
2019-02-16T15:45:19.367Z,15.90
2019-02-16T15:48:00.070Z,15.50
2019-02-16T15:50:40.450Z,15.30
2019-02-16T15:53:23.328Z,15.10
2019-02-16T15:56:10.037Z,15.00
2019-02-16T15:58:44.140Z,14.80
2019-02-16T16:01:26.444Z,14.50
2019-02-16T16:04:06.430Z,14.40
2019-02-16T16:06:46.258Z,14.30
2019-02-16T16:09:46.082Z,14.20
2019-02-16T16:12:47.606Z,14.10
2019-02-16T16:15:45.461Z,14.00
2019-02-16T16:18:37.843Z,13.80
2019-02-16T16:21:24.524Z,13.60
2019-02-16T16:24:12.606Z,13.40
2019-02-16T16:27:15.679Z,13.40
2019-02-16T16:30:17.480Z,13.20
2019-02-16T16:33:22.314Z,13.10
2019-02-16T16:36:20.422Z,12.90
2019-02-16T16:39:12.758Z,12.80
2019-02-16T16:42:09.514Z,12.70
2019-02-16T16:45:06.596Z,12.60
2019-02-16T16:48:07.944Z,12.50
2019-02-16T16:51:12.426Z,12.30
2019-02-16T16:54:10.247Z,12.20
2019-02-16T16:57:02.100Z,12.10
2019-02-16T16:59:53.071Z,12.00
2019-02-16T17:02:47.833Z,11.90
2019-02-16T17:05:49.724Z,11.80
2019-02-16T17:08:49.065Z,11.70
2019-02-16T17:11:47.840Z,11.50
2019-02-16T17:14:40.546Z,11.30
2019-02-16T17:17:37.976Z,11.20
2019-02-16T17:20:36.846Z,11.20
2019-02-16T17:23:22.995Z,11.10
2019-02-16T17:26:27.843Z,11.00
2019-02-16T17:29:41.798Z,11.00
2019-02-16T17:32:49.656Z,10.80
2019-02-16T17:35:51.191Z,10.70
2019-02-16T17:38:41.237Z,10.60
2019-02-16T17:41:34.910Z,10.40
2019-02-16T17:44:29.563Z,10.30
2019-02-16T17:47:41.276Z,10.10
2019-02-16T17:50:45.020Z,10.00
2019-02-16T17:53:42.478Z,9.80
2019-02-16T17:56:47.008Z,9.70
2019-02-16T17:59:35.124Z,9.50
2019-02-16T18:02:23.168Z,9.40
2019-02-16T18:05:20.066Z,9.40
2019-02-16T18:08:24.748Z,9.50
2019-02-16T18:11:22.565Z,9.50
2019-02-16T18:14:10.417Z,9.40
2019-02-16T18:17:08.026Z,9.30
2019-02-16T18:20:16.127Z,9.20
2019-02-16T18:23:01.919Z,9.10
2019-02-16T18:26:06.987Z,8.90
2019-02-16T18:29:21.507Z,8.80
2019-02-16T18:32:29.436Z,8.70
2019-02-16T18:35:23.978Z,8.70
2019-02-16T18:38:25.150Z,8.70
2019-02-16T18:41:24.465Z,8.70
2019-02-16T18:44:23.160Z,8.60
2019-02-16T18:47:23.560Z,8.50
2019-02-16T18:50:19.947Z,8.50
2019-02-16T18:53:25.396Z,8.40
2019-02-16T18:56:30.737Z,8.40
2019-02-16T18:59:32.662Z,8.30
2019-02-16T19:02:43.241Z,8.20
2019-02-16T19:05:40.683Z,8.20
2019-02-16T19:08:38.520Z,8.10
2019-02-16T19:11:49.654Z,8.00
2019-02-16T19:14:48.609Z,7.90
2019-02-16T19:17:50.511Z,7.80
2019-02-16T19:20:49.127Z,7.80
2019-02-16T19:23:40.007Z,7.70
2019-02-16T19:26:28.028Z,7.70
2019-02-16T19:29:32.822Z,7.60
2019-02-16T19:32:30.185Z,7.60
2019-02-16T19:35:28.228Z,7.60
2019-02-16T19:38:25.198Z,7.50
2019-02-16T19:41:13.564Z,7.40
2019-02-16T19:44:10.627Z,7.40
2019-02-16T19:47:08.155Z,7.30
2019-02-16T19:50:05.822Z,7.30
2019-02-16T19:53:07.724Z,7.20
2019-02-16T19:56:04.896Z,7.10
2019-02-16T19:59:06.499Z,7.30
2019-02-16T20:02:14.954Z,7.20
2019-02-16T20:05:05.045Z,7.20
2019-02-16T20:07:51.983Z,7.10
2019-02-16T20:10:52.319Z,7.00
2019-02-16T20:13:44.138Z,7.10
2019-02-16T20:16:31.355Z,7.00
2019-02-16T20:19:21.156Z,6.90
2019-02-16T20:22:11.535Z,6.90
2019-02-16T20:25:10.530Z,6.70
2019-02-16T20:28:21.429Z,6.80
2019-02-16T20:31:09.655Z,6.80
2019-02-16T20:34:10.895Z,6.80
2019-02-16T20:37:13.973Z,6.70
2019-02-16T20:40:03.242Z,6.70
2019-02-16T20:43:04.797Z,6.70
2019-02-16T20:46:02.565Z,6.60
2019-02-16T20:48:58.569Z,6.50
2019-02-16T20:51:47.494Z,6.40
2019-02-16T20:55:01.982Z,6.40
2019-02-16T20:57:48.712Z,6.40
2019-02-16T21:00:43.362Z,6.40
2019-02-16T21:03:40.945Z,6.40
2019-02-16T21:06:32.221Z,6.30
2019-02-16T21:09:36.607Z,6.20
2019-02-16T21:12:34.328Z,6.10
2019-02-16T21:15:23.598Z,6.10
2019-02-16T21:18:21.299Z,6.10
2019-02-16T21:21:15.987Z,6.00
2019-02-16T21:24:21.455Z,6.00
2019-02-16T21:27:13.974Z,6.00
2019-02-16T21:30:28.377Z,6.00
2019-02-16T21:33:26.219Z,6.00
2019-02-16T21:36:43.520Z,5.80
2019-02-16T21:39:42.332Z,5.60
2019-02-16T21:42:27.553Z,5.40
2019-02-16T21:45:19.720Z,5.20
2019-02-16T21:48:14.369Z,5.00
2019-02-16T21:51:09.901Z,4.90
2019-02-16T21:54:07.011Z,4.90
2019-02-16T21:57:08.960Z,4.80
2019-02-16T22:00:00.362Z,4.60
2019-02-16T22:02:49.411Z,4.50
2019-02-16T22:05:50.747Z,4.40
2019-02-16T22:08:46.257Z,4.30
2019-02-16T22:11:44.616Z,4.20
2019-02-16T22:14:24.015Z,4.00
2019-02-16T22:17:04.084Z,4.00
2019-02-16T22:19:55.808Z,4.00
2019-02-16T22:22:36.043Z,3.90
2019-02-16T22:25:15.436Z,3.80
2019-02-16T22:27:55.937Z,3.80
2019-02-16T22:30:37.037Z,3.70
2019-02-16T22:33:16.374Z,3.60
2019-02-16T22:35:57.153Z,3.50
2019-02-16T22:38:36.560Z,3.40
2019-02-16T22:41:16.436Z,3.40
2019-02-16T22:43:56.339Z,3.30
2019-02-16T22:46:35.626Z,3.20
2019-02-16T22:49:14.959Z,3.30
2019-02-16T22:51:54.888Z,3.30
2019-02-16T22:54:34.638Z,3.30
2019-02-16T22:57:15.238Z,3.30
2019-02-16T22:59:55.448Z,3.40
2019-02-16T23:02:35.735Z,3.50
2019-02-16T23:05:15.378Z,3.50
2019-02-16T23:07:56.826Z,3.50
2019-02-16T23:10:37.028Z,3.50
2019-02-16T23:13:16.946Z,3.30
2019-02-16T23:15:56.897Z,3.30
2019-02-16T23:18:38.666Z,3.20
2019-02-16T23:21:17.827Z,3.30
2019-02-16T23:23:58.708Z,3.30
2019-02-16T23:26:37.951Z,3.30
2019-02-16T23:29:18.720Z,3.30
2019-02-16T23:31:58.249Z,3.20
2019-02-16T23:34:37.704Z,3.10
2019-02-16T23:37:19.356Z,3.00
2019-02-16T23:39:59.409Z,2.90
2019-02-16T23:42:39.264Z,2.90
2019-02-16T23:45:19.158Z,2.90
2019-02-16T23:47:59.130Z,3.00
2019-02-16T23:50:39.012Z,3.10
2019-02-16T23:53:18.229Z,3.10
2019-02-16T23:55:57.440Z,3.10
2019-02-16T23:58:37.455Z,3.10
